createdAt,value
2022-09-15T00:02:17.103Z,99718.75
2022-09-15T00:07:20.733Z,99712.56
2022-09-15T00:12:25.514Z,99715.91
2022-09-15T00:17:29.055Z,99709.66
2022-09-15T00:22:32.570Z,99710.31
2022-09-15T00:27:37.374Z,99705.38
2022-09-15T00:32:40.832Z,99710.03
2022-09-15T00:37:44.191Z,99703.47
2022-09-15T00:42:49.119Z,99714.41
2022-09-15T00:47:53.050Z,99710.41
2022-09-15T00:52:59.366Z,99712.03
2022-09-15T00:58:06.558Z,99702.00
2022-09-15T01:03:09.942Z,99702.47
2022-09-15T01:08:18.536Z,99717.69
2022-09-15T01:13:23.329Z,99710.03
2022-09-15T01:18:32.163Z,99722.94
2022-09-15T01:24:08.586Z,99717.44
2022-09-15T01:29:52.432Z,99727.16
2022-09-15T01:35:00.154Z,99727.97
2022-09-15T01:40:05.048Z,99733.19
2022-09-15T01:45:12.195Z,99726.81
2022-09-15T01:50:18.793Z,99732.03
2022-09-15T01:55:24.507Z,99721.19
2022-09-15T02:00:30.559Z,99725.19
2022-09-15T02:05:37.087Z,99719.84
2022-09-15T02:10:47.161Z,99721.00
2022-09-15T02:15:54.664Z,99727.84
2022-09-15T02:21:08.065Z,99721.81
2022-09-15T02:26:14.623Z,99724.50
2022-09-15T02:31:21.304Z,99728.16
2022-09-15T02:36:25.602Z,99732.66
2022-09-15T02:41:29.122Z,99728.78
2022-09-15T02:46:34.025Z,99730.06
2022-09-15T02:51:37.478Z,99730.53
2022-09-15T02:56:41.033Z,99718.34
2022-09-15T03:01:45.902Z,99733.66
2022-09-15T03:06:49.376Z,99726.66
2022-09-15T03:11:52.778Z,99724.13
2022-09-15T03:16:58.229Z,99723.34
2022-09-15T03:22:01.719Z,99728.34
2022-09-15T03:27:05.989Z,99727.72
2022-09-15T03:32:10.919Z,99735.03
2022-09-15T03:37:14.400Z,99724.03
2022-09-15T03:42:19.612Z,99730.88
2022-09-15T03:47:24.418Z,99729.84
2022-09-15T03:52:28.469Z,99725.53
2022-09-15T03:57:31.863Z,99727.38
2022-09-15T04:02:36.678Z,99729.38
2022-09-15T04:07:40.196Z,99728.03
2022-09-15T04:12:44.291Z,99714.72
2022-09-15T04:17:49.335Z,99725.84
2022-09-15T04:22:52.719Z,99726.09
2022-09-15T04:27:57.346Z,99723.34
2022-09-15T04:33:02.648Z,99719.38
2022-09-15T04:38:06.279Z,99714.81
2022-09-15T04:43:09.677Z,99721.81
2022-09-15T04:48:14.530Z,99735.16
2022-09-15T04:53:18.144Z,99734.50
2022-09-15T04:58:21.502Z,99730.50
2022-09-15T05:03:26.303Z,99735.84
2022-09-15T05:08:29.987Z,99733.38
2022-09-15T05:13:34.270Z,99737.19
2022-09-15T05:18:39.415Z,99741.53
2022-09-15T05:23:43.678Z,99741.69
2022-09-15T05:28:47.342Z,99735.34
2022-09-15T05:33:52.977Z,99741.34
2022-09-15T05:38:57.419Z,99747.88
2022-09-15T05:44:00.838Z,99740.34
2022-09-15T05:49:07.433Z,99744.97
2022-09-15T05:54:11.296Z,99743.13
2022-09-15T05:59:14.862Z,99737.78
2022-09-15T06:04:19.611Z,99746.59
2022-09-15T06:09:23.266Z,99744.00
2022-09-15T06:14:26.833Z,99747.22
2022-09-15T06:19:31.605Z,99741.53
2022-09-15T06:24:34.947Z,99752.66
2022-09-15T06:29:38.294Z,99760.22
2022-09-15T06:34:43.017Z,99752.72
2022-09-15T06:39:46.402Z,99766.06
2022-09-15T06:44:50.143Z,99760.91
2022-09-15T06:49:55.669Z,99759.13
2022-09-15T06:54:59.028Z,99768.41
2022-09-15T07:00:02.921Z,99767.31
2022-09-15T07:05:08.411Z,99773.06
2022-09-15T07:10:11.729Z,99780.59
2022-09-15T07:15:15.176Z,99768.34
2022-09-15T07:20:19.964Z,99772.38
2022-09-15T07:25:23.355Z,99779.38
2022-09-15T07:30:26.694Z,99784.41
2022-09-15T07:35:31.505Z,99776.03
2022-09-15T07:40:35.054Z,99777.88
2022-09-15T07:45:38.541Z,99778.66
2022-09-15T07:50:47.266Z,99789.81
2022-09-15T07:55:53.218Z,99791.00
2022-09-15T08:01:02.625Z,99799.81
2022-09-15T08:06:07.863Z,99797.53
2022-09-15T08:11:18.438Z,99802.28
2022-09-15T08:16:24.713Z,99803.53
2022-09-15T08:21:29.883Z,99804.25
2022-09-15T08:26:33.310Z,99815.06
2022-09-15T08:31:36.756Z,99814.31
2022-09-15T08:36:41.750Z,99837.31
2022-09-15T08:41:46.765Z,99833.53
2022-09-15T08:46:53.993Z,99824.56
2022-09-15T08:52:04.742Z,99830.13
2022-09-15T08:57:12.783Z,99834.00
2022-09-15T09:02:47.624Z,99828.78
2022-09-15T09:08:08.756Z,99832.72
2022-09-15T09:13:21.667Z,99824.31
2022-09-15T09:18:49.746Z,99818.38
2022-09-15T09:23:58.471Z,99819.38
2022-09-15T09:29:03.014Z,99824.88
2022-09-15T09:34:13.052Z,99828.00
2022-09-15T09:39:17.749Z,99826.31
2022-09-15T09:44:31.530Z,99817.03
2022-09-15T09:49:36.022Z,99815.31
2022-09-15T09:54:42.194Z,99811.22
2022-09-15T09:59:47.150Z,99796.41
2022-09-15T10:04:52.656Z,99804.50
2022-09-15T10:09:59.356Z,99796.56
2022-09-15T10:15:05.556Z,99783.84
2022-09-15T10:20:28.169Z,99793.19
2022-09-15T10:25:58.653Z,99787.66
2022-09-15T10:31:03.977Z,99780.41
2022-09-15T10:36:12.397Z,99794.81
2022-09-15T10:41:23.455Z,99791.63
2022-09-15T10:46:29.207Z,99790.41
2022-09-15T10:51:43.164Z,99780.25
2022-09-15T10:56:50.281Z,99804.63
2022-09-15T11:02:20.578Z,99805.28
2022-09-15T11:07:30.515Z,99807.38
2022-09-15T11:12:44.838Z,99801.31
2022-09-15T11:18:04.192Z,99799.88
2022-09-15T11:23:12.935Z,99792.44
2022-09-15T11:28:21.335Z,99799.53
2022-09-15T11:33:29.009Z,99790.63
2022-09-15T11:38:37.049Z,99796.41
2022-09-15T11:43:46.195Z,99787.59
2022-09-15T11:48:54.345Z,99801.47
2022-09-15T11:54:02.699Z,99795.94
2022-09-15T11:59:16.026Z,99795.31
2022-09-15T12:04:23.327Z,99816.50
2022-09-15T12:09:26.923Z,99827.72
2022-09-15T12:14:33.991Z,99829.47
2022-09-15T12:19:51.561Z,99825.84
2022-09-15T12:25:01.314Z,99858.53
2022-09-15T12:30:07.649Z,99865.09
2022-09-15T12:35:33.125Z,99853.75
2022-09-15T12:40:37.884Z,99847.50
2022-09-15T12:45:44.934Z,99844.00
2022-09-15T12:50:54.441Z,99845.41
2022-09-15T12:55:59.856Z,99844.00
2022-09-15T13:01:34.341Z,99833.41
2022-09-15T13:06:38.435Z,99815.00
2022-09-15T13:11:43.047Z,99811.59
2022-09-15T13:16:53.771Z,99824.03
2022-09-15T13:22:00.292Z,99828.59
2022-09-15T13:27:04.842Z,99837.06
2022-09-15T13:32:17.093Z,99840.25
2022-09-15T13:43:10.043Z,99827.94
2022-09-15T13:48:49.776Z,99823.34
2022-09-15T13:53:54.775Z,99813.88
2022-09-15T13:59:09.901Z,99802.66
2022-09-15T14:04:17.877Z,99801.59
2022-09-15T14:09:24.977Z,99796.78
2022-09-15T14:14:37.093Z,99795.69
2022-09-15T14:19:43.368Z,99785.91
2022-09-15T14:24:48.152Z,99794.06
2022-09-15T14:29:55.130Z,99783.88
2022-09-15T14:35:00.883Z,99787.09
2022-09-15T14:40:19.200Z,99789.78
2022-09-15T14:50:59.325Z,99783.94
2022-09-15T14:56:08.212Z,99797.91
2022-09-15T15:01:15.615Z,99801.25
2022-09-15T15:06:30.504Z,99801.22
2022-09-15T15:11:34.847Z,99798.03
2022-09-15T15:16:38.325Z,99779.31
2022-09-15T15:21:44.560Z,99788.19
2022-09-15T15:26:49.013Z,99793.91
2022-09-15T15:31:52.842Z,99805.59
2022-09-15T15:37:04.673Z,99814.53
2022-09-15T15:42:08.979Z,99821.63
2022-09-15T15:47:25.511Z,99820.84
2022-09-15T15:52:30.289Z,99823.72
2022-09-15T15:57:36.147Z,99819.56
2022-09-15T16:02:39.533Z,99811.75
2022-09-15T16:07:46.167Z,99822.63
2022-09-15T16:12:49.666Z,99811.53
2022-09-15T16:17:53.179Z,99818.56
2022-09-15T16:22:58.076Z,99822.22
2022-09-15T16:28:01.879Z,99815.03
2022-09-15T16:33:05.437Z,99824.47
2022-09-15T16:38:10.290Z,99819.81
2022-09-15T16:43:14.559Z,99825.97
2022-09-15T16:48:18.040Z,99828.19
2022-09-15T16:53:23.231Z,99823.28
2022-09-15T16:58:26.806Z,99820.31
2022-09-15T17:03:30.535Z,99822.63
2022-09-15T17:08:35.378Z,99819.59
2022-09-15T17:13:38.762Z,99820.97
2022-09-15T17:18:42.144Z,99825.78
2022-09-15T17:23:48.337Z,99831.06
2022-09-15T17:28:51.843Z,99836.97
2022-09-15T17:33:55.249Z,99846.06
2022-09-15T17:39:00.090Z,99860.31
2022-09-15T17:44:03.554Z,99867.25
2022-09-15T17:49:06.898Z,99865.31
2022-09-15T17:54:12.217Z,99869.16
2022-09-15T17:59:16.286Z,99880.06
2022-09-15T18:04:19.915Z,99867.47
2022-09-15T18:09:25.235Z,99882.88
2022-09-15T18:14:28.566Z,99885.53
2022-09-15T18:19:32.074Z,99886.72
2022-09-15T18:24:36.788Z,99896.44
2022-09-15T18:29:40.159Z,99896.22
2022-09-15T18:34:43.577Z,99888.53
2022-09-15T18:39:48.301Z,99902.88
2022-09-15T18:44:51.867Z,99907.34
2022-09-15T18:49:55.376Z,99908.66
2022-09-15T18:55:00.378Z,99918.78
2022-09-15T19:00:04.960Z,99907.41
2022-09-15T19:05:11.128Z,99918.13
2022-09-15T19:10:17.281Z,99921.47
2022-09-15T19:15:23.754Z,99915.09
2022-09-15T19:20:27.381Z,99922.44
2022-09-15T19:25:32.112Z,99918.78
2022-09-15T19:30:35.910Z,99923.97
2022-09-15T19:35:42.429Z,99926.47
2022-09-15T19:40:47.431Z,99922.47
2022-09-15T19:45:50.818Z,99921.81
2022-09-15T19:50:54.590Z,99935.66
2022-09-15T19:55:59.339Z,99943.16
2022-09-15T20:01:03.048Z,99940.19
2022-09-15T20:06:08.304Z,99940.25
2022-09-15T20:11:13.088Z,99939.34
2022-09-15T20:16:18.131Z,99943.69
2022-09-15T20:21:45.827Z,99945.69
2022-09-15T20:26:48.399Z,99954.22
2022-09-15T20:31:52.247Z,99956.03
2022-09-15T20:36:55.646Z,99949.88
2022-09-15T20:42:00.417Z,99952.53
2022-09-15T20:47:03.851Z,99956.03
2022-09-15T20:52:07.472Z,99950.34
2022-09-15T20:57:12.269Z,99945.16
2022-09-15T21:02:15.695Z,99950.16
2022-09-15T21:07:19.182Z,99953.38
2022-09-15T21:12:24.041Z,99959.28
2022-09-15T21:17:28.907Z,99963.66
2022-09-15T21:22:32.379Z,99964.56
2022-09-15T21:27:37.532Z,99966.88
2022-09-15T21:32:40.879Z,99970.84
2022-09-15T21:37:44.195Z,99971.88
2022-09-15T21:42:49.406Z,99970.78
2022-09-15T21:47:52.978Z,99974.44
2022-09-15T21:52:56.366Z,99970.91
2022-09-15T21:58:01.207Z,99977.84
2022-09-15T22:03:04.796Z,99990.28
2022-09-15T22:08:10.366Z,99982.88
2022-09-15T22:13:15.116Z,99985.22
2022-09-15T22:18:18.612Z,99981.03
2022-09-15T22:23:22.011Z,99981.63
2022-09-15T22:28:26.841Z,99987.88
2022-09-15T22:33:30.718Z,99986.72
2022-09-15T22:38:34.072Z,99992.59
2022-09-15T22:43:39.272Z,99986.94
2022-09-15T22:48:43.725Z,99992.47
2022-09-15T22:53:47.348Z,99996.97
2022-09-15T22:58:52.016Z,99998.63
2022-09-15T23:03:57.178Z,100002.88
2022-09-15T23:09:03.210Z,99997.25
2022-09-15T23:14:09.044Z,100004.53
2022-09-15T23:19:13.073Z,99999.50
2022-09-15T23:24:16.992Z,99998.25
2022-09-15T23:29:23.043Z,99997.69
2022-09-15T23:34:26.460Z,99995.31
2022-09-15T23:39:29.957Z,99989.06
2022-09-15T23:44:34.741Z,99985.94
2022-09-15T23:49:38.173Z,99982.00
2022-09-15T23:54:41.622Z,99987.78
2022-09-15T23:59:46.395Z,99989.84
